sensor_id;sensor_type;location;lat;lon;timestamp;temperature;humidity
51029;DHT22;37054;52.054;8.600;2022-10-16T00:02:23;18.50;65.50
51029;DHT22;37054;52.054;8.600;2022-10-16T00:04:51;18.50;65.40
51029;DHT22;37054;52.054;8.600;2022-10-16T00:07:16;18.50;65.50
51029;DHT22;37054;52.054;8.600;2022-10-16T00:09:42;18.50;65.70
51029;DHT22;37054;52.054;8.600;2022-10-16T00:12:07;18.60;65.70
51029;DHT22;37054;52.054;8.600;2022-10-16T00:14:32;18.60;65.80
51029;DHT22;37054;52.054;8.600;2022-10-16T00:16:58;18.70;65.90
51029;DHT22;37054;52.054;8.600;2022-10-16T00:19:24;18.70;65.80
51029;DHT22;37054;52.054;8.600;2022-10-16T00:21:49;18.70;65.60
51029;DHT22;37054;52.054;8.600;2022-10-16T00:24:15;18.70;65.70
51029;DHT22;37054;52.054;8.600;2022-10-16T00:26:40;18.70;65.50
51029;DHT22;37054;52.054;8.600;2022-10-16T00:29:06;18.70;65.50
51029;DHT22;37054;52.054;8.600;2022-10-16T00:31:31;18.70;65.60
51029;DHT22;37054;52.054;8.600;2022-10-16T00:33:59;18.70;65.50
51029;DHT22;37054;52.054;8.600;2022-10-16T00:36:25;18.70;65.40
51029;DHT22;37054;52.054;8.600;2022-10-16T00:38:52;18.70;65.30
51029;DHT22;37054;52.054;8.600;2022-10-16T00:41:21;18.70;65.10
51029;DHT22;37054;52.054;8.600;2022-10-16T00:43:48;18.60;65.00
51029;DHT22;37054;52.054;8.600;2022-10-16T00:48:45;18.50;64.90
51029;DHT22;37054;52.054;8.600;2022-10-16T00:51:13;18.50;65.00
51029;DHT22;37054;52.054;8.600;2022-10-16T00:53:39;18.50;64.80
51029;DHT22;37054;52.054;8.600;2022-10-16T00:56:05;18.40;64.70
51029;DHT22;37054;52.054;8.600;2022-10-16T00:58:31;18.40;64.80
51029;DHT22;37054;52.054;8.600;2022-10-16T01:00:56;18.30;64.70
51029;DHT22;37054;52.054;8.600;2022-10-16T01:03:25;18.30;64.40
51029;DHT22;37054;52.054;8.600;2022-10-16T01:05:53;18.30;64.30
51029;DHT22;37054;52.054;8.600;2022-10-16T01:08:27;18.20;64.50
51029;DHT22;37054;52.054;8.600;2022-10-16T01:10:57;18.20;64.60
51029;DHT22;37054;52.054;8.600;2022-10-16T01:13:32;18.20;64.70
51029;DHT22;37054;52.054;8.600;2022-10-16T01:18:37;18.10;64.60
51029;DHT22;37054;52.054;8.600;2022-10-16T01:21:04;18.10;64.60
51029;DHT22;37054;52.054;8.600;2022-10-16T01:28:39;18.10;65.00
51029;DHT22;37054;52.054;8.600;2022-10-16T01:31:06;18.10;65.20
51029;DHT22;37054;52.054;8.600;2022-10-16T01:33:45;18.10;65.20
51029;DHT22;37054;52.054;8.600;2022-10-16T01:36:13;18.10;65.20
51029;DHT22;37054;52.054;8.600;2022-10-16T01:38:39;18.10;65.30
51029;DHT22;37054;52.054;8.600;2022-10-16T01:41:09;18.10;65.30
51029;DHT22;37054;52.054;8.600;2022-10-16T01:43:37;18.10;65.20
51029;DHT22;37054;52.054;8.600;2022-10-16T01:46:05;18.10;65.10
51029;DHT22;37054;52.054;8.600;2022-10-16T01:48:30;18.10;65.20
51029;DHT22;37054;52.054;8.600;2022-10-16T01:50:59;18.10;65.30
51029;DHT22;37054;52.054;8.600;2022-10-16T01:53:26;18.20;65.40
51029;DHT22;37054;52.054;8.600;2022-10-16T01:55:52;18.10;65.30
51029;DHT22;37054;52.054;8.600;2022-10-16T01:58:19;18.20;65.40
51029;DHT22;37054;52.054;8.600;2022-10-16T02:00:45;18.20;65.30
51029;DHT22;37054;52.054;8.600;2022-10-16T02:03:13;18.20;65.20
51029;DHT22;37054;52.054;8.600;2022-10-16T02:05:41;18.20;65.20
51029;DHT22;37054;52.054;8.600;2022-10-16T02:08:07;18.20;65.20
51029;DHT22;37054;52.054;8.600;2022-10-16T02:10:34;18.20;65.30
51029;DHT22;37054;52.054;8.600;2022-10-16T02:13:03;18.20;65.30
51029;DHT22;37054;52.054;8.600;2022-10-16T02:15:30;18.20;65.20
51029;DHT22;37054;52.054;8.600;2022-10-16T02:17:56;18.20;65.20
51029;DHT22;37054;52.054;8.600;2022-10-16T02:20:22;18.20;65.00
51029;DHT22;37054;52.054;8.600;2022-10-16T02:22:49;18.20;65.10
51029;DHT22;37054;52.054;8.600;2022-10-16T02:25:19;18.20;65.00
51029;DHT22;37054;52.054;8.600;2022-10-16T02:28:00;18.20;64.90
51029;DHT22;37054;52.054;8.600;2022-10-16T02:30:34;18.20;64.90
51029;DHT22;37054;52.054;8.600;2022-10-16T02:33:02;18.20;64.90
51029;DHT22;37054;52.054;8.600;2022-10-16T02:35:30;18.10;64.90
51029;DHT22;37054;52.054;8.600;2022-10-16T02:37:56;18.10;64.90
51029;DHT22;37054;52.054;8.600;2022-10-16T02:40:22;18.10;64.90
51029;DHT22;37054;52.054;8.600;2022-10-16T02:42:52;18.20;65.00
51029;DHT22;37054;52.054;8.600;2022-10-16T02:45:17;18.10;65.00
51029;DHT22;37054;52.054;8.600;2022-10-16T02:47:43;18.10;64.90
51029;DHT22;37054;52.054;8.600;2022-10-16T02:50:08;18.10;64.80
51029;DHT22;37054;52.054;8.600;2022-10-16T02:52:34;18.10;64.70
51029;DHT22;37054;52.054;8.600;2022-10-16T02:54:59;18.10;64.70
51029;DHT22;37054;52.054;8.600;2022-10-16T02:57:25;18.00;64.60
51029;DHT22;37054;52.054;8.600;2022-10-16T02:59:51;18.00;64.60
51029;DHT22;37054;52.054;8.600;2022-10-16T03:02:16;18.00;64.60
51029;DHT22;37054;52.054;8.600;2022-10-16T03:04:42;18.00;64.60
51029;DHT22;37054;52.054;8.600;2022-10-16T03:07:07;18.00;64.60
51029;DHT22;37054;52.054;8.600;2022-10-16T03:09:33;18.00;64.80
51029;DHT22;37054;52.054;8.600;2022-10-16T03:11:59;18.10;65.10
51029;DHT22;37054;52.054;8.600;2022-10-16T03:14:24;18.20;65.30
51029;DHT22;37054;52.054;8.600;2022-10-16T03:16:50;18.30;65.30
51029;DHT22;37054;52.054;8.600;2022-10-16T03:19:16;18.40;65.30
51029;DHT22;37054;52.054;8.600;2022-10-16T03:21:41;18.30;65.30
51029;DHT22;37054;52.054;8.600;2022-10-16T03:24:07;18.40;65.10
51029;DHT22;37054;52.054;8.600;2022-10-16T03:26:33;18.40;64.90
51029;DHT22;37054;52.054;8.600;2022-10-16T03:28:58;18.30;64.80
51029;DHT22;37054;52.054;8.600;2022-10-16T03:31:24;18.30;64.60
51029;DHT22;37054;52.054;8.600;2022-10-16T03:33:49;18.30;64.40
51029;DHT22;37054;52.054;8.600;2022-10-16T03:36:15;18.30;64.50
51029;DHT22;37054;52.054;8.600;2022-10-16T03:38:40;18.20;64.30
51029;DHT22;37054;52.054;8.600;2022-10-16T03:41:06;18.20;64.20
51029;DHT22;37054;52.054;8.600;2022-10-16T03:43:33;18.20;64.20
51029;DHT22;37054;52.054;8.600;2022-10-16T03:45:58;18.10;64.20
51029;DHT22;37054;52.054;8.600;2022-10-16T03:48:24;18.00;64.30
51029;DHT22;37054;52.054;8.600;2022-10-16T03:50:49;18.00;64.30
51029;DHT22;37054;52.054;8.600;2022-10-16T03:53:15;18.00;64.40
51029;DHT22;37054;52.054;8.600;2022-10-16T03:55:41;18.00;64.50
51029;DHT22;37054;52.054;8.600;2022-10-16T03:58:07;18.00;64.40
51029;DHT22;37054;52.054;8.600;2022-10-16T04:00:32;18.00;64.50
51029;DHT22;37054;52.054;8.600;2022-10-16T04:02:58;18.00;64.70
51029;DHT22;37054;52.054;8.600;2022-10-16T04:05:23;18.00;64.80
51029;DHT22;37054;52.054;8.600;2022-10-16T04:07:49;18.20;65.00
51029;DHT22;37054;52.054;8.600;2022-10-16T04:10:14;18.20;65.10
51029;DHT22;37054;52.054;8.600;2022-10-16T04:12:40;18.30;65.10
51029;DHT22;37054;52.054;8.600;2022-10-16T04:15:05;18.30;65.10
51029;DHT22;37054;52.054;8.600;2022-10-16T04:17:31;18.30;65.00
51029;DHT22;37054;52.054;8.600;2022-10-16T04:19:56;18.40;65.10
51029;DHT22;37054;52.054;8.600;2022-10-16T04:22:22;18.50;65.00
51029;DHT22;37054;52.054;8.600;2022-10-16T04:24:48;18.50;65.10
51029;DHT22;37054;52.054;8.600;2022-10-16T04:27:13;18.50;65.00
51029;DHT22;37054;52.054;8.600;2022-10-16T04:29:39;18.60;65.10
51029;DHT22;37054;52.054;8.600;2022-10-16T04:32:04;18.60;65.00
51029;DHT22;37054;52.054;8.600;2022-10-16T04:34:30;18.60;65.00
51029;DHT22;37054;52.054;8.600;2022-10-16T04:36:55;18.70;65.10
51029;DHT22;37054;52.054;8.600;2022-10-16T04:39:21;18.80;65.10
51029;DHT22;37054;52.054;8.600;2022-10-16T04:41:46;18.80;65.10
51029;DHT22;37054;52.054;8.600;2022-10-16T04:44:12;18.80;65.00
51029;DHT22;37054;52.054;8.600;2022-10-16T04:46:37;18.90;65.00
51029;DHT22;37054;52.054;8.600;2022-10-16T04:49:03;19.00;65.10
51029;DHT22;37054;52.054;8.600;2022-10-16T04:51:28;19.00;65.00
51029;DHT22;37054;52.054;8.600;2022-10-16T04:53:54;19.00;65.00
51029;DHT22;37054;52.054;8.600;2022-10-16T04:56:20;19.10;65.00
51029;DHT22;37054;52.054;8.600;2022-10-16T04:58:46;19.10;65.00
51029;DHT22;37054;52.054;8.600;2022-10-16T05:01:12;19.20;64.90
51029;DHT22;37054;52.054;8.600;2022-10-16T05:03:37;19.20;64.90
51029;DHT22;37054;52.054;8.600;2022-10-16T05:06:04;19.20;64.80
51029;DHT22;37054;52.054;8.600;2022-10-16T05:08:30;19.30;64.80
51029;DHT22;37054;52.054;8.600;2022-10-16T05:10:55;19.30;64.70
51029;DHT22;37054;52.054;8.600;2022-10-16T05:13:21;19.40;64.70
51029;DHT22;37054;52.054;8.600;2022-10-16T05:15:47;19.40;64.60
51029;DHT22;37054;52.054;8.600;2022-10-16T05:18:13;19.40;64.60
51029;DHT22;37054;52.054;8.600;2022-10-16T05:20:38;19.40;64.50
51029;DHT22;37054;52.054;8.600;2022-10-16T05:23:04;19.40;64.40
51029;DHT22;37054;52.054;8.600;2022-10-16T05:25:29;19.30;64.30
51029;DHT22;37054;52.054;8.600;2022-10-16T05:27:55;19.30;64.10
51029;DHT22;37054;52.054;8.600;2022-10-16T05:30:20;19.20;63.90
51029;DHT22;37054;52.054;8.600;2022-10-16T05:32:47;19.10;63.70
51029;DHT22;37054;52.054;8.600;2022-10-16T05:35:13;19.00;63.70
51029;DHT22;37054;52.054;8.600;2022-10-16T05:37:38;19.00;63.50
51029;DHT22;37054;52.054;8.600;2022-10-16T05:40:04;18.80;63.40
51029;DHT22;37054;52.054;8.600;2022-10-16T05:42:30;18.80;63.30
51029;DHT22;37054;52.054;8.600;2022-10-16T05:44:55;18.70;63.30
51029;DHT22;37054;52.054;8.600;2022-10-16T05:47:21;18.70;63.30
51029;DHT22;37054;52.054;8.600;2022-10-16T05:49:46;18.60;63.20
51029;DHT22;37054;52.054;8.600;2022-10-16T05:52:12;18.50;63.30
51029;DHT22;37054;52.054;8.600;2022-10-16T05:54:38;18.50;63.40
51029;DHT22;37054;52.054;8.600;2022-10-16T05:57:03;18.40;63.50
51029;DHT22;37054;52.054;8.600;2022-10-16T05:59:31;18.40;63.60
51029;DHT22;37054;52.054;8.600;2022-10-16T06:01:56;18.30;63.70
51029;DHT22;37054;52.054;8.600;2022-10-16T06:04:22;18.30;63.60
51029;DHT22;37054;52.054;8.600;2022-10-16T06:06:47;18.30;63.60
51029;DHT22;37054;52.054;8.600;2022-10-16T06:09:13;18.30;63.50
51029;DHT22;37054;52.054;8.600;2022-10-16T06:11:38;18.30;63.40
51029;DHT22;37054;52.054;8.600;2022-10-16T06:14:04;18.30;63.50
51029;DHT22;37054;52.054;8.600;2022-10-16T06:16:32;18.30;63.90
51029;DHT22;37054;52.054;8.600;2022-10-16T06:18:58;18.20;63.70
51029;DHT22;37054;52.054;8.600;2022-10-16T06:21:25;18.30;63.90
51029;DHT22;37054;52.054;8.600;2022-10-16T06:23:51;18.30;64.20
51029;DHT22;37054;52.054;8.600;2022-10-16T06:26:18;18.40;64.50
51029;DHT22;37054;52.054;8.600;2022-10-16T06:28:43;18.40;64.60
51029;DHT22;37054;52.054;8.600;2022-10-16T06:31:09;18.60;65.00
51029;DHT22;37054;52.054;8.600;2022-10-16T06:33:36;18.70;65.20
51029;DHT22;37054;52.054;8.600;2022-10-16T06:38:28;18.90;65.50
51029;DHT22;37054;52.054;8.600;2022-10-16T06:40:53;19.10;65.70
51029;DHT22;37054;52.054;8.600;2022-10-16T06:43:19;19.40;66.70
51029;DHT22;37054;52.054;8.600;2022-10-16T06:45:52;19.60;66.90
51029;DHT22;37054;52.054;8.600;2022-10-16T06:48:18;19.80;66.30
51029;DHT22;37054;52.054;8.600;2022-10-16T06:50:44;19.90;66.30
51029;DHT22;37054;52.054;8.600;2022-10-16T06:53:09;20.00;65.70
51029;DHT22;37054;52.054;8.600;2022-10-16T06:55:35;20.10;65.40
51029;DHT22;37054;52.054;8.600;2022-10-16T06:58:00;20.10;64.90
51029;DHT22;37054;52.054;8.600;2022-10-16T07:00:26;20.10;64.90
51029;DHT22;37054;52.054;8.600;2022-10-16T07:02:51;20.10;64.90
51029;DHT22;37054;52.054;8.600;2022-10-16T07:05:17;20.20;65.40
51029;DHT22;37054;52.054;8.600;2022-10-16T07:07:42;20.30;65.60
51029;DHT22;37054;52.054;8.600;2022-10-16T07:10:08;20.40;65.50
51029;DHT22;37054;52.054;8.600;2022-10-16T07:12:33;20.40;66.10
51029;DHT22;37054;52.054;8.600;2022-10-16T07:14:59;20.70;66.90
51029;DHT22;37054;52.054;8.600;2022-10-16T07:17:24;21.20;68.20
51029;DHT22;37054;52.054;8.600;2022-10-16T07:19:50;21.50;67.30
51029;DHT22;37054;52.054;8.600;2022-10-16T07:22:18;21.70;67.30
51029;DHT22;37054;52.054;8.600;2022-10-16T07:24:43;22.00;67.40
51029;DHT22;37054;52.054;8.600;2022-10-16T07:27:09;22.20;66.80
51029;DHT22;37054;52.054;8.600;2022-10-16T07:29:35;22.40;65.80
51029;DHT22;37054;52.054;8.600;2022-10-16T07:32:01;22.40;65.80
51029;DHT22;37054;52.054;8.600;2022-10-16T07:34:26;22.60;65.50
51029;DHT22;37054;52.054;8.600;2022-10-16T07:36:52;22.70;65.20
51029;DHT22;37054;52.054;8.600;2022-10-16T07:39:18;22.80;65.40
51029;DHT22;37054;52.054;8.600;2022-10-16T07:41:43;22.90;65.80
51029;DHT22;37054;52.054;8.600;2022-10-16T07:44:09;23.20;66.60
51029;DHT22;37054;52.054;8.600;2022-10-16T07:46:35;23.50;67.80
51029;DHT22;37054;52.054;8.600;2022-10-16T07:49:01;24.00;67.80
51029;DHT22;37054;52.054;8.600;2022-10-16T07:51:27;24.30;67.00
51029;DHT22;37054;52.054;8.600;2022-10-16T07:53:53;24.40;65.90
51029;DHT22;37054;52.054;8.600;2022-10-16T07:56:19;24.60;65.80
51029;DHT22;37054;52.054;8.600;2022-10-16T07:58:44;24.60;64.90
51029;DHT22;37054;52.054;8.600;2022-10-16T08:01:13;24.50;63.80
51029;DHT22;37054;52.054;8.600;2022-10-16T08:03:43;24.30;63.70
51029;DHT22;37054;52.054;8.600;2022-10-16T08:06:09;24.30;64.20
51029;DHT22;37054;52.054;8.600;2022-10-16T08:08:34;24.20;63.60
51029;DHT22;37054;52.054;8.600;2022-10-16T08:11:00;24.30;64.90
51029;DHT22;37054;52.054;8.600;2022-10-16T08:13:28;24.60;67.20
51029;DHT22;37054;52.054;8.600;2022-10-16T08:15:54;25.10;67.90
51029;DHT22;37054;52.054;8.600;2022-10-16T08:18:19;25.60;67.70
51029;DHT22;37054;52.054;8.600;2022-10-16T08:20:45;26.00;66.80
51029;DHT22;37054;52.054;8.600;2022-10-16T08:23:11;26.40;66.20
51029;DHT22;37054;52.054;8.600;2022-10-16T08:25:37;26.80;65.20
51029;DHT22;37054;52.054;8.600;2022-10-16T08:28:07;26.90;63.70
51029;DHT22;37054;52.054;8.600;2022-10-16T08:30:33;27.30;64.50
51029;DHT22;37054;52.054;8.600;2022-10-16T08:32:58;27.70;64.10
51029;DHT22;37054;52.054;8.600;2022-10-16T08:35:24;28.10;65.20
51029;DHT22;37054;52.054;8.600;2022-10-16T08:37:49;28.50;64.40
51029;DHT22;37054;52.054;8.600;2022-10-16T08:40:20;28.90;64.10
51029;DHT22;37054;52.054;8.600;2022-10-16T08:50:25;30.30;63.00
51029;DHT22;37054;52.054;8.600;2022-10-16T08:52:52;30.60;61.90
51029;DHT22;37054;52.054;8.600;2022-10-16T08:57:52;31.00;56.70
51029;DHT22;37054;52.054;8.600;2022-10-16T09:00:17;31.10;56.40
51029;DHT22;37054;52.054;8.600;2022-10-16T09:08:00;31.60;56.30
51029;DHT22;37054;52.054;8.600;2022-10-16T09:10:36;31.60;51.30
51029;DHT22;37054;52.054;8.600;2022-10-16T09:15:34;31.70;51.60
51029;DHT22;37054;52.054;8.600;2022-10-16T09:18:05;31.80;51.00
51029;DHT22;37054;52.054;8.600;2022-10-16T09:23:25;31.70;47.60
51029;DHT22;37054;52.054;8.600;2022-10-16T09:25:51;31.70;48.30
51029;DHT22;37054;52.054;8.600;2022-10-16T09:28:17;31.90;50.60
51029;DHT22;37054;52.054;8.600;2022-10-16T09:30:43;32.20;45.80
51029;DHT22;37054;52.054;8.600;2022-10-16T09:33:09;32.30;46.20
51029;DHT22;37054;52.054;8.600;2022-10-16T09:35:37;32.30;44.20
51029;DHT22;37054;52.054;8.600;2022-10-16T09:38:04;32.40;44.80
51029;DHT22;37054;52.054;8.600;2022-10-16T09:40:33;32.50;43.20
51029;DHT22;37054;52.054;8.600;2022-10-16T09:45:27;32.40;43.50
51029;DHT22;37054;52.054;8.600;2022-10-16T09:47:53;32.20;41.90
51029;DHT22;37054;52.054;8.600;2022-10-16T09:50:23;32.10;42.50
51029;DHT22;37054;52.054;8.600;2022-10-16T09:52:49;32.10;41.40
51029;DHT22;37054;52.054;8.600;2022-10-16T09:55:15;32.20;41.70
51029;DHT22;37054;52.054;8.600;2022-10-16T09:57:54;32.20;40.70
51029;DHT22;37054;52.054;8.600;2022-10-16T10:00:19;32.20;39.40
51029;DHT22;37054;52.054;8.600;2022-10-16T10:02:45;32.30;39.70
51029;DHT22;37054;52.054;8.600;2022-10-16T10:05:21;32.40;38.80
51029;DHT22;37054;52.054;8.600;2022-10-16T10:07:53;32.30;38.50
51029;DHT22;37054;52.054;8.600;2022-10-16T10:10:20;32.10;38.10
51029;DHT22;37054;52.054;8.600;2022-10-16T10:12:46;31.80;37.60
51029;DHT22;37054;52.054;8.600;2022-10-16T10:15:12;31.30;37.90
51029;DHT22;37054;52.054;8.600;2022-10-16T10:17:46;31.10;38.70
51029;DHT22;37054;52.054;8.600;2022-10-16T10:20:31;31.00;39.90
51029;DHT22;37054;52.054;8.600;2022-10-16T10:23:21;31.20;41.90
51029;DHT22;37054;52.054;8.600;2022-10-16T10:36:09;32.80;37.90
51029;DHT22;37054;52.054;8.600;2022-10-16T10:38:50;33.00;36.70
51029;DHT22;37054;52.054;8.600;2022-10-16T10:54:31;33.70;34.30
51029;DHT22;37054;52.054;8.600;2022-10-16T10:56:59;34.00;33.80
51029;DHT22;37054;52.054;8.600;2022-10-16T11:06:55;34.40;30.50
51029;DHT22;37054;52.054;8.600;2022-10-16T11:09:27;34.30;30.70
51029;DHT22;37054;52.054;8.600;2022-10-16T11:11:58;34.50;30.60
51029;DHT22;37054;52.054;8.600;2022-10-16T11:14:30;34.50;30.40
51029;DHT22;37054;52.054;8.600;2022-10-16T11:19:32;34.10;29.80
51029;DHT22;37054;52.054;8.600;2022-10-16T11:22:04;33.80;30.10
51029;DHT22;37054;52.054;8.600;2022-10-16T11:24:41;33.40;29.80
51029;DHT22;37054;52.054;8.600;2022-10-16T11:27:11;33.20;30.60
51029;DHT22;37054;52.054;8.600;2022-10-16T11:29:50;32.80;31.00
51029;DHT22;37054;52.054;8.600;2022-10-16T11:32:27;32.50;30.60
51029;DHT22;37054;52.054;8.600;2022-10-16T11:34:55;32.10;30.90
51029;DHT22;37054;52.054;8.600;2022-10-16T11:37:32;31.40;31.30
51029;DHT22;37054;52.054;8.600;2022-10-16T11:40:03;30.90;31.80
51029;DHT22;37054;52.054;8.600;2022-10-16T11:42:32;30.50;32.50
51029;DHT22;37054;52.054;8.600;2022-10-16T11:45:03;30.50;33.70
51029;DHT22;37054;52.054;8.600;2022-10-16T11:47:37;30.70;33.70
51029;DHT22;37054;52.054;8.600;2022-10-16T11:50:23;30.60;34.20
51029;DHT22;37054;52.054;8.600;2022-10-16T11:52:52;30.90;34.10
51029;DHT22;37054;52.054;8.600;2022-10-16T11:55:23;31.30;34.00
51029;DHT22;37054;52.054;8.600;2022-10-16T11:57:51;31.70;33.30
51029;DHT22;37054;52.054;8.600;2022-10-16T12:02:53;32.20;32.00
51029;DHT22;37054;52.054;8.600;2022-10-16T12:07:50;32.40;30.50
51029;DHT22;37054;52.054;8.600;2022-10-16T12:10:21;32.40;30.50
51029;DHT22;37054;52.054;8.600;2022-10-16T12:12:47;32.50;30.30
51029;DHT22;37054;52.054;8.600;2022-10-16T12:15:34;32.50;30.10
51029;DHT22;37054;52.054;8.600;2022-10-16T12:17:59;32.50;30.10
51029;DHT22;37054;52.054;8.600;2022-10-16T12:20:26;32.50;30.60
51029;DHT22;37054;52.054;8.600;2022-10-16T12:22:59;32.60;31.10
51029;DHT22;37054;52.054;8.600;2022-10-16T12:25:30;32.70;30.90
51029;DHT22;37054;52.054;8.600;2022-10-16T12:27:57;32.60;30.00
51029;DHT22;37054;52.054;8.600;2022-10-16T12:30:24;32.20;30.10
51029;DHT22;37054;52.054;8.600;2022-10-16T12:32:56;31.80;31.00
51029;DHT22;37054;52.054;8.600;2022-10-16T12:35:27;31.60;31.60
51029;DHT22;37054;52.054;8.600;2022-10-16T12:37:53;31.30;32.20
51029;DHT22;37054;52.054;8.600;2022-10-16T12:40:29;31.00;32.60
51029;DHT22;37054;52.054;8.600;2022-10-16T12:42:56;30.60;33.10
51029;DHT22;37054;52.054;8.600;2022-10-16T12:45:28;30.30;33.40
51029;DHT22;37054;52.054;8.600;2022-10-16T12:47:55;29.90;33.40
51029;DHT22;37054;52.054;8.600;2022-10-16T12:50:25;29.60;33.80
51029;DHT22;37054;52.054;8.600;2022-10-16T12:52:51;29.30;34.00
51029;DHT22;37054;52.054;8.600;2022-10-16T12:55:17;29.00;34.10
51029;DHT22;37054;52.054;8.600;2022-10-16T13:03:02;28.30;34.70
51029;DHT22;37054;52.054;8.600;2022-10-16T13:11:05;27.60;35.60
51029;DHT22;37054;52.054;8.600;2022-10-16T13:13:37;27.50;36.10
51029;DHT22;37054;52.054;8.600;2022-10-16T13:19:09;27.20;36.40
51029;DHT22;37054;52.054;8.600;2022-10-16T13:24:11;27.00;36.90
51029;DHT22;37054;52.054;8.600;2022-10-16T13:26:41;26.90;37.10
51029;DHT22;37054;52.054;8.600;2022-10-16T13:29:10;26.90;37.20
51029;DHT22;37054;52.054;8.600;2022-10-16T13:31:36;26.70;37.30
51029;DHT22;37054;52.054;8.600;2022-10-16T13:34:03;26.70;37.40
51029;DHT22;37054;52.054;8.600;2022-10-16T13:36:42;26.60;37.60
51029;DHT22;37054;52.054;8.600;2022-10-16T13:39:25;26.50;37.80
51029;DHT22;37054;52.054;8.600;2022-10-16T13:44:25;26.40;37.80
51029;DHT22;37054;52.054;8.600;2022-10-16T13:46:58;26.30;37.80
51029;DHT22;37054;52.054;8.600;2022-10-16T13:49:23;26.20;38.00
51029;DHT22;37054;52.054;8.600;2022-10-16T13:51:56;26.20;38.10
51029;DHT22;37054;52.054;8.600;2022-10-16T13:54:22;26.20;38.20
51029;DHT22;37054;52.054;8.600;2022-10-16T13:56:48;26.10;38.10
51029;DHT22;37054;52.054;8.600;2022-10-16T13:59:24;26.10;38.10
51029;DHT22;37054;52.054;8.600;2022-10-16T14:01:49;26.00;37.60
51029;DHT22;37054;52.054;8.600;2022-10-16T14:04:16;26.00;37.80
51029;DHT22;37054;52.054;8.600;2022-10-16T14:06:45;26.00;37.80
51029;DHT22;37054;52.054;8.600;2022-10-16T14:09:20;25.90;37.90
51029;DHT22;37054;52.054;8.600;2022-10-16T14:11:50;25.80;38.00
51029;DHT22;37054;52.054;8.600;2022-10-16T14:14:17;25.80;38.10
51029;DHT22;37054;52.054;8.600;2022-10-16T14:16:45;25.80;38.30
51029;DHT22;37054;52.054;8.600;2022-10-16T14:19:17;25.80;38.40
51029;DHT22;37054;52.054;8.600;2022-10-16T14:21:43;25.70;38.50
51029;DHT22;37054;52.054;8.600;2022-10-16T14:24:12;25.70;38.70
51029;DHT22;37054;52.054;8.600;2022-10-16T14:26:44;25.70;38.70
51029;DHT22;37054;52.054;8.600;2022-10-16T14:29:14;25.60;38.70
51029;DHT22;37054;52.054;8.600;2022-10-16T14:31:40;25.50;38.70
51029;DHT22;37054;52.054;8.600;2022-10-16T14:36:50;25.40;38.70
51029;DHT22;37054;52.054;8.600;2022-10-16T14:39:22;25.30;38.90
51029;DHT22;37054;52.054;8.600;2022-10-16T14:41:48;25.30;39.00
51029;DHT22;37054;52.054;8.600;2022-10-16T14:44:14;25.30;39.00
51029;DHT22;37054;52.054;8.600;2022-10-16T14:46:41;25.20;38.90
51029;DHT22;37054;52.054;8.600;2022-10-16T14:51:39;25.10;39.30
51029;DHT22;37054;52.054;8.600;2022-10-16T14:54:10;25.10;39.40
51029;DHT22;37054;52.054;8.600;2022-10-16T14:56:46;25.00;39.50
51029;DHT22;37054;52.054;8.600;2022-10-16T14:59:17;25.00;39.70
51029;DHT22;37054;52.054;8.600;2022-10-16T15:01:44;24.90;39.80
51029;DHT22;37054;52.054;8.600;2022-10-16T15:04:10;24.80;39.90
51029;DHT22;37054;52.054;8.600;2022-10-16T15:06:36;24.80;39.90
51029;DHT22;37054;52.054;8.600;2022-10-16T15:09:02;24.70;40.10
51029;DHT22;37054;52.054;8.600;2022-10-16T15:11:27;24.70;40.20
51029;DHT22;37054;52.054;8.600;2022-10-16T15:13:52;24.80;40.30
51029;DHT22;37054;52.054;8.600;2022-10-16T15:16:18;24.80;40.40
51029;DHT22;37054;52.054;8.600;2022-10-16T15:18:43;24.90;40.50
51029;DHT22;37054;52.054;8.600;2022-10-16T15:21:15;25.00;40.50
51029;DHT22;37054;52.054;8.600;2022-10-16T15:23:45;25.00;40.60
51029;DHT22;37054;52.054;8.600;2022-10-16T15:26:11;25.00;40.70
51029;DHT22;37054;52.054;8.600;2022-10-16T15:28:36;25.00;40.70
51029;DHT22;37054;52.054;8.600;2022-10-16T15:31:02;24.90;40.80
51029;DHT22;37054;52.054;8.600;2022-10-16T15:33:29;24.80;40.80
51029;DHT22;37054;52.054;8.600;2022-10-16T15:35:59;24.80;41.00
51029;DHT22;37054;52.054;8.600;2022-10-16T15:38:25;24.70;41.00
51029;DHT22;37054;52.054;8.600;2022-10-16T15:40:51;24.70;41.10
51029;DHT22;37054;52.054;8.600;2022-10-16T15:43:17;24.60;41.20
51029;DHT22;37054;52.054;8.600;2022-10-16T15:45:43;24.50;41.30
51029;DHT22;37054;52.054;8.600;2022-10-16T15:48:13;24.40;41.40
51029;DHT22;37054;52.054;8.600;2022-10-16T15:50:39;24.40;41.50
51029;DHT22;37054;52.054;8.600;2022-10-16T15:53:04;24.30;41.50
51029;DHT22;37054;52.054;8.600;2022-10-16T15:55:30;24.20;41.60
51029;DHT22;37054;52.054;8.600;2022-10-16T15:57:55;24.00;41.70
51029;DHT22;37054;52.054;8.600;2022-10-16T16:00:21;24.00;41.80
51029;DHT22;37054;52.054;8.600;2022-10-16T16:02:52;23.80;42.00
51029;DHT22;37054;52.054;8.600;2022-10-16T16:05:19;23.80;42.10
51029;DHT22;37054;52.054;8.600;2022-10-16T16:07:45;23.70;42.30
51029;DHT22;37054;52.054;8.600;2022-10-16T16:10:10;23.70;42.40
51029;DHT22;37054;52.054;8.600;2022-10-16T16:12:36;23.70;42.50
51029;DHT22;37054;52.054;8.600;2022-10-16T16:15:02;23.70;42.60
51029;DHT22;37054;52.054;8.600;2022-10-16T16:17:28;23.80;42.60
51029;DHT22;37054;52.054;8.600;2022-10-16T16:19:55;23.70;42.80
51029;DHT22;37054;52.054;8.600;2022-10-16T16:22:20;23.70;42.90
51029;DHT22;37054;52.054;8.600;2022-10-16T16:24:46;23.70;42.90
51029;DHT22;37054;52.054;8.600;2022-10-16T16:27:11;23.70;42.90
51029;DHT22;37054;52.054;8.600;2022-10-16T16:29:38;23.60;43.00
51029;DHT22;37054;52.054;8.600;2022-10-16T16:32:04;23.60;43.20
51029;DHT22;37054;52.054;8.600;2022-10-16T16:34:29;23.50;43.30
51029;DHT22;37054;52.054;8.600;2022-10-16T16:36:55;23.50;43.40
51029;DHT22;37054;52.054;8.600;2022-10-16T16:39:21;23.50;43.40
51029;DHT22;37054;52.054;8.600;2022-10-16T16:41:46;23.50;43.40
51029;DHT22;37054;52.054;8.600;2022-10-16T16:44:12;23.50;43.80
51029;DHT22;37054;52.054;8.600;2022-10-16T16:46:38;23.40;43.90
51029;DHT22;37054;52.054;8.600;2022-10-16T16:49:09;23.40;44.00
51029;DHT22;37054;52.054;8.600;2022-10-16T16:51:34;23.30;44.10
51029;DHT22;37054;52.054;8.600;2022-10-16T16:54:00;23.30;44.20
51029;DHT22;37054;52.054;8.600;2022-10-16T16:56:25;23.20;44.40
51029;DHT22;37054;52.054;8.600;2022-10-16T16:58:52;23.20;44.50
51029;DHT22;37054;52.054;8.600;2022-10-16T17:01:18;23.20;44.60
51029;DHT22;37054;52.054;8.600;2022-10-16T17:03:44;23.10;44.70
51029;DHT22;37054;52.054;8.600;2022-10-16T17:06:10;23.10;44.80
51029;DHT22;37054;52.054;8.600;2022-10-16T17:08:36;23.00;44.90
51029;DHT22;37054;52.054;8.600;2022-10-16T17:11:01;23.00;45.00